MRA2830 KONT-KSLC
Flight info
| Callsign | MRA2830 |
|---|---|
| Flight time | 3h 3m |
| Altitude | 13000 |
| Route | LAS V394 MMM V21 MLF FFU |
| Aircraft | C208/L-SDFGR/C |
Departure
| Time | 2026-04-30 17:57 |
|---|---|
| Airport | Ontario International Airport (KONT) |
Arrival
| Time | 2026-04-30 21:00 |
|---|---|
| Airport | Salt Lake City International Airport (KSLC) |
| Time | Latitude | Longitude | Altitude | Speed | Heading |
|---|---|---|---|---|---|
| 2026-04-30 17:47 | 34.05162 | -117.58176 | 911 ft | 0 kts | 269° |
| 2026-04-30 17:53 | 34.05231 | -117.58080 | 917 ft | 7 kts | 337° |
| 2026-04-30 17:54 | 34.05337 | -117.58272 | 920 ft | 7 kts | 358° |
| 2026-04-30 17:55 | 34.05482 | -117.58276 | 928 ft | 5 kts | 353° |
| 2026-04-30 17:56 | 34.05494 | -117.59380 | 953 ft | 100 kts | 269° |
| 2026-04-30 17:57 | 34.04291 | -117.60741 | 1610 ft | 101 kts | 167° |
| 2026-04-30 17:58 | 34.02860 | -117.58568 | 1973 ft | 126 kts | 108° |
| 2026-04-30 17:59 | 34.03346 | -117.54598 | 2865 ft | 118 kts | 72° |
| 2026-04-30 18:00 | 34.05226 | -117.51820 | 3794 ft | 107 kts | 32° |
| 2026-04-30 18:00 | 34.07270 | -117.50275 | 4206 ft | 126 kts | 30° |
| 2026-04-30 18:01 | 34.08816 | -117.49140 | 4464 ft | 134 kts | 30° |
| 2026-04-30 18:02 | 34.11416 | -117.47749 | 4849 ft | 139 kts | 17° |
| 2026-04-30 18:02 | 34.14317 | -117.46736 | 5259 ft | 139 kts | 14° |
| 2026-04-30 18:03 | 34.17186 | -117.46063 | 5780 ft | 135 kts | 18° |
| 2026-04-30 18:04 | 34.19474 | -117.43968 | 6323 ft | 132 kts | 44° |
| 2026-04-30 18:05 | 34.22124 | -117.40845 | 7030 ft | 131 kts | 44° |
| 2026-04-30 18:06 | 34.24797 | -117.37716 | 7735 ft | 130 kts | 44° |
| 2026-04-30 18:07 | 34.27457 | -117.34599 | 8420 ft | 130 kts | 44° |
| 2026-04-30 18:08 | 34.29466 | -117.32243 | 8955 ft | 131 kts | 44° |
| 2026-04-30 18:09 | 34.32257 | -117.28969 | 9467 ft | 140 kts | 45° |
| 2026-04-30 18:10 | 34.35132 | -117.25591 | 9938 ft | 142 kts | 45° |
| 2026-04-30 18:11 | 34.38090 | -117.22112 | 10416 ft | 144 kts | 45° |
| 2026-04-30 18:11 | 34.40400 | -117.19393 | 10666 ft | 150 kts | 45° |
| 2026-04-30 18:12 | 34.42754 | -117.16617 | 10885 ft | 153 kts | 45° |
| 2026-04-30 18:13 | 34.44357 | -117.14726 | 11031 ft | 154 kts | 44° |
| 2026-04-30 18:13 | 34.46695 | -117.11965 | 11239 ft | 155 kts | 44° |
| 2026-04-30 18:14 | 34.48263 | -117.10114 | 11376 ft | 156 kts | 44° |
| 2026-04-30 18:15 | 34.50682 | -117.07258 | 11520 ft | 158 kts | 45° |
| 2026-04-30 18:15 | 34.53121 | -117.04372 | 11668 ft | 160 kts | 44° |
| 2026-04-30 18:16 | 34.54753 | -117.02442 | 11766 ft | 161 kts | 45° |
| 2026-04-30 18:16 | 34.56390 | -117.00505 | 11858 ft | 161 kts | 44° |
| 2026-04-30 18:17 | 34.57199 | -116.99545 | 11909 ft | 161 kts | 44° |
| 2026-04-30 18:17 | 34.58012 | -116.98585 | 11956 ft | 161 kts | 44° |
| 2026-04-30 18:17 | 34.59741 | -116.96536 | 12108 ft | 159 kts | 44° |
| 2026-04-30 18:18 | 34.60558 | -116.95563 | 12268 ft | 154 kts | 44° |
| 2026-04-30 18:18 | 34.61364 | -116.94608 | 12458 ft | 148 kts | 44° |
| 2026-04-30 18:18 | 34.62135 | -116.93694 | 12633 ft | 145 kts | 44° |
| 2026-04-30 18:18 | 34.62899 | -116.92790 | 12767 ft | 146 kts | 44° |
| 2026-04-30 18:19 | 34.63667 | -116.91881 | 12899 ft | 146 kts | 44° |
| 2026-04-30 18:19 | 34.64453 | -116.90947 | 12993 ft | 149 kts | 44° |
| 2026-04-30 18:19 | 34.65225 | -116.90032 | 13006 ft | 155 kts | 44° |
| 2026-04-30 18:19 | 34.66054 | -116.89047 | 13006 ft | 160 kts | 44° |
| 2026-04-30 18:20 | 34.66878 | -116.88070 | 13004 ft | 163 kts | 44° |
| 2026-04-30 18:20 | 34.67727 | -116.87059 | 13005 ft | 165 kts | 44° |
| 2026-04-30 18:20 | 34.68604 | -116.86015 | 13007 ft | 167 kts | 44° |
| 2026-04-30 18:20 | 34.69444 | -116.85017 | 13004 ft | 167 kts | 44° |
| 2026-04-30 18:21 | 34.70285 | -116.84012 | 13005 ft | 166 kts | 44° |
| 2026-04-30 18:21 | 34.71120 | -116.83019 | 13010 ft | 165 kts | 44° |
| 2026-04-30 18:21 | 34.71969 | -116.82008 | 13014 ft | 165 kts | 44° |
| 2026-04-30 18:21 | 34.72799 | -116.81018 | 13020 ft | 165 kts | 44° |
| 2026-04-30 18:22 | 34.73627 | -116.80033 | 13020 ft | 164 kts | 44° |
| 2026-04-30 18:22 | 34.75293 | -116.78047 | 13019 ft | 164 kts | 44° |
| 2026-04-30 18:22 | 34.76117 | -116.77064 | 13020 ft | 164 kts | 44° |
| 2026-04-30 18:23 | 34.76961 | -116.76058 | 13020 ft | 164 kts | 44° |
| 2026-04-30 18:23 | 34.77799 | -116.75059 | 13019 ft | 164 kts | 44° |
| 2026-04-30 18:23 | 34.78633 | -116.74065 | 13013 ft | 164 kts | 44° |
| 2026-04-30 18:23 | 34.79474 | -116.73060 | 13008 ft | 164 kts | 44° |
| 2026-04-30 18:24 | 34.81138 | -116.71072 | 12996 ft | 164 kts | 43° |
| 2026-04-30 18:24 | 34.81965 | -116.70085 | 12993 ft | 164 kts | 43° |
| 2026-04-30 18:24 | 34.82790 | -116.69100 | 12991 ft | 164 kts | 44° |
| 2026-04-30 18:25 | 34.83609 | -116.68120 | 12985 ft | 164 kts | 44° |
| 2026-04-30 18:25 | 34.85248 | -116.66158 | 12986 ft | 164 kts | 44° |
| 2026-04-30 18:25 | 34.86083 | -116.65160 | 12980 ft | 164 kts | 44° |
| 2026-04-30 18:26 | 34.87720 | -116.63202 | 12973 ft | 164 kts | 44° |
| 2026-04-30 18:26 | 34.88553 | -116.62203 | 12966 ft | 164 kts | 44° |
| 2026-04-30 18:26 | 34.89376 | -116.61217 | 13003 ft | 162 kts | 43° |
| 2026-04-30 18:27 | 34.91017 | -116.59252 | 13020 ft | 161 kts | 43° |
| 2026-04-30 18:27 | 34.91838 | -116.58267 | 13045 ft | 161 kts | 43° |
| 2026-04-30 18:28 | 34.93494 | -116.56281 | 13043 ft | 162 kts | 43° |
| 2026-04-30 18:28 | 34.94328 | -116.55280 | 13041 ft | 163 kts | 43° |
| 2026-04-30 18:28 | 34.96028 | -116.53239 | 13034 ft | 164 kts | 43° |
| 2026-04-30 18:29 | 34.96871 | -116.52227 | 13033 ft | 164 kts | 43° |
| 2026-04-30 18:29 | 34.99397 | -116.49192 | 13032 ft | 164 kts | 43° |
| 2026-04-30 18:30 | 35.01081 | -116.47163 | 13029 ft | 164 kts | 43° |
| 2026-04-30 18:30 | 35.02773 | -116.45128 | 13027 ft | 164 kts | 43° |
| 2026-04-30 18:31 | 35.03610 | -116.44118 | 13029 ft | 164 kts | 43° |
| 2026-04-30 18:31 | 35.05273 | -116.42118 | 13031 ft | 164 kts | 43° |
| 2026-04-30 18:32 | 35.06957 | -116.40086 | 13031 ft | 164 kts | 43° |
| 2026-04-30 18:32 | 35.07792 | -116.39079 | 13032 ft | 164 kts | 43° |
| 2026-04-30 18:32 | 35.09485 | -116.37038 | 13031 ft | 164 kts | 43° |
| 2026-04-30 18:33 | 35.10319 | -116.36029 | 13033 ft | 165 kts | 43° |
| 2026-04-30 18:33 | 35.12020 | -116.33975 | 13036 ft | 164 kts | 44° |
| 2026-04-30 18:33 | 35.12880 | -116.32937 | 13039 ft | 165 kts | 44° |
| 2026-04-30 18:34 | 35.13723 | -116.31917 | 13035 ft | 165 kts | 44° |
| 2026-04-30 18:34 | 35.15416 | -116.29871 | 13040 ft | 165 kts | 44° |
| 2026-04-30 18:34 | 35.16261 | -116.28848 | 13045 ft | 165 kts | 44° |
| 2026-04-30 18:35 | 35.17106 | -116.27826 | 13043 ft | 166 kts | 44° |
| 2026-04-30 18:35 | 35.17959 | -116.26793 | 13042 ft | 165 kts | 44° |
| 2026-04-30 18:35 | 35.18814 | -116.25757 | 13049 ft | 165 kts | 44° |
| 2026-04-30 18:36 | 35.20511 | -116.23702 | 13050 ft | 165 kts | 44° |
| 2026-04-30 18:36 | 35.21367 | -116.22664 | 13047 ft | 166 kts | 44° |
| 2026-04-30 18:36 | 35.23064 | -116.20606 | 13050 ft | 166 kts | 44° |
| 2026-04-30 18:37 | 35.23912 | -116.19578 | 13044 ft | 166 kts | 44° |
| 2026-04-30 18:37 | 35.24777 | -116.18528 | 13044 ft | 166 kts | 44° |
| 2026-04-30 18:37 | 35.25628 | -116.17495 | 13044 ft | 165 kts | 44° |
| 2026-04-30 18:37 | 35.26471 | -116.16471 | 13044 ft | 166 kts | 44° |
| 2026-04-30 18:38 | 35.27328 | -116.15430 | 13042 ft | 166 kts | 44° |
| 2026-04-30 18:38 | 35.28170 | -116.14408 | 13040 ft | 166 kts | 44° |
| 2026-04-30 18:38 | 35.29016 | -116.13378 | 13045 ft | 165 kts | 44° |
| 2026-04-30 18:38 | 35.29875 | -116.12334 | 13044 ft | 165 kts | 44° |
| 2026-04-30 18:39 | 35.30735 | -116.11289 | 13046 ft | 165 kts | 44° |
| 2026-04-30 18:39 | 35.31578 | -116.10263 | 13042 ft | 166 kts | 44° |
| 2026-04-30 18:39 | 35.32428 | -116.09229 | 13041 ft | 166 kts | 44° |
| 2026-04-30 18:39 | 35.33258 | -116.08217 | 13041 ft | 166 kts | 44° |
| 2026-04-30 18:40 | 35.34093 | -116.07201 | 13043 ft | 166 kts | 44° |
| 2026-04-30 18:40 | 35.34941 | -116.06168 | 13047 ft | 166 kts | 44° |
| 2026-04-30 18:40 | 35.35796 | -116.05126 | 13048 ft | 166 kts | 44° |
| 2026-04-30 18:40 | 35.36649 | -116.04087 | 13050 ft | 166 kts | 44° |
| 2026-04-30 18:41 | 35.37498 | -116.03052 | 13051 ft | 166 kts | 44° |
| 2026-04-30 18:41 | 35.38357 | -116.02004 | 13054 ft | 166 kts | 44° |
| 2026-04-30 18:41 | 35.39181 | -116.00999 | 13059 ft | 166 kts | 44° |
| 2026-04-30 18:41 | 35.40002 | -115.99997 | 13057 ft | 166 kts | 44° |
| 2026-04-30 18:42 | 35.40828 | -115.98988 | 13056 ft | 166 kts | 44° |
| 2026-04-30 18:42 | 35.42484 | -115.96965 | 13065 ft | 166 kts | 44° |
| 2026-04-30 18:42 | 35.43307 | -115.95960 | 13069 ft | 166 kts | 44° |
| 2026-04-30 18:45 | 35.51527 | -115.85899 | 13087 ft | 166 kts | 44° |
| 2026-04-30 18:45 | 35.52349 | -115.84891 | 13090 ft | 166 kts | 43° |
| 2026-04-30 18:45 | 35.53172 | -115.83882 | 13091 ft | 166 kts | 43° |
| 2026-04-30 18:46 | 35.53996 | -115.82871 | 13092 ft | 166 kts | 44° |
| 2026-04-30 18:46 | 35.54817 | -115.81863 | 13094 ft | 166 kts | 43° |
| 2026-04-30 18:46 | 35.55641 | -115.80852 | 13093 ft | 166 kts | 43° |
| 2026-04-30 18:46 | 35.56463 | -115.79843 | 13093 ft | 166 kts | 43° |
| 2026-04-30 18:47 | 35.57281 | -115.78837 | 13094 ft | 166 kts | 43° |
| 2026-04-30 18:47 | 35.58102 | -115.77828 | 13094 ft | 166 kts | 43° |
| 2026-04-30 18:47 | 35.58926 | -115.76816 | 13090 ft | 166 kts | 43° |
| 2026-04-30 18:47 | 35.59755 | -115.75796 | 13089 ft | 166 kts | 43° |
| 2026-04-30 18:48 | 35.60571 | -115.74794 | 13089 ft | 166 kts | 43° |
| 2026-04-30 18:48 | 35.61390 | -115.73786 | 13093 ft | 166 kts | 43° |
| 2026-04-30 18:48 | 35.62210 | -115.72777 | 13095 ft | 166 kts | 43° |
| 2026-04-30 18:48 | 35.63026 | -115.71772 | 13096 ft | 166 kts | 43° |
| 2026-04-30 18:49 | 35.63843 | -115.70767 | 13099 ft | 166 kts | 43° |
| 2026-04-30 18:49 | 35.64662 | -115.69757 | 13100 ft | 166 kts | 43° |
| 2026-04-30 18:49 | 35.65489 | -115.68739 | 13101 ft | 166 kts | 43° |
| 2026-04-30 18:49 | 35.66337 | -115.67694 | 13105 ft | 166 kts | 43° |
| 2026-04-30 18:50 | 35.67180 | -115.66654 | 13106 ft | 166 kts | 43° |
| 2026-04-30 18:50 | 35.68050 | -115.65581 | 13109 ft | 166 kts | 43° |
| 2026-04-30 18:50 | 35.68905 | -115.64526 | 13111 ft | 166 kts | 43° |
| 2026-04-30 18:50 | 35.69755 | -115.63477 | 13113 ft | 166 kts | 43° |
| 2026-04-30 18:51 | 35.70600 | -115.62434 | 13113 ft | 166 kts | 43° |
| 2026-04-30 18:51 | 35.71431 | -115.61408 | 13114 ft | 166 kts | 43° |
| 2026-04-30 18:51 | 35.72282 | -115.60357 | 13119 ft | 166 kts | 43° |
| 2026-04-30 18:51 | 35.73131 | -115.59307 | 13121 ft | 166 kts | 43° |
| 2026-04-30 18:52 | 35.73983 | -115.58255 | 13124 ft | 166 kts | 43° |
| 2026-04-30 18:52 | 35.74820 | -115.57219 | 13125 ft | 166 kts | 43° |
| 2026-04-30 18:52 | 35.75675 | -115.56161 | 13127 ft | 166 kts | 43° |
| 2026-04-30 18:52 | 35.76548 | -115.55081 | 13131 ft | 166 kts | 43° |
| 2026-04-30 18:53 | 35.77434 | -115.53985 | 13130 ft | 166 kts | 43° |
| 2026-04-30 18:53 | 35.78318 | -115.52890 | 13133 ft | 166 kts | 43° |
| 2026-04-30 18:53 | 35.79174 | -115.51831 | 13136 ft | 166 kts | 43° |
| 2026-04-30 18:53 | 35.80011 | -115.50793 | 13140 ft | 166 kts | 42° |
| 2026-04-30 18:54 | 35.80858 | -115.49744 | 13142 ft | 166 kts | 43° |
| 2026-04-30 18:54 | 35.81709 | -115.48689 | 13139 ft | 167 kts | 43° |
| 2026-04-30 18:54 | 35.82532 | -115.47669 | 13138 ft | 166 kts | 42° |
| 2026-04-30 18:54 | 35.83357 | -115.46645 | 13135 ft | 166 kts | 43° |
| 2026-04-30 18:55 | 35.84207 | -115.45590 | 13136 ft | 166 kts | 42° |
| 2026-04-30 18:55 | 35.85920 | -115.43464 | 13136 ft | 166 kts | 43° |
| 2026-04-30 18:55 | 35.86775 | -115.42402 | 13136 ft | 165 kts | 43° |
| 2026-04-30 18:56 | 35.88521 | -115.40232 | 13141 ft | 165 kts | 43° |
| 2026-04-30 18:56 | 35.89403 | -115.39135 | 13140 ft | 165 kts | 43° |
| 2026-04-30 18:56 | 35.90286 | -115.38038 | 13143 ft | 165 kts | 42° |
| 2026-04-30 18:57 | 35.91949 | -115.35968 | 13139 ft | 165 kts | 43° |
| 2026-04-30 18:57 | 35.92763 | -115.34955 | 13137 ft | 165 kts | 43° |
| 2026-04-30 18:57 | 35.93574 | -115.33944 | 13132 ft | 166 kts | 43° |
| 2026-04-30 18:58 | 35.95202 | -115.31917 | 13126 ft | 166 kts | 43° |
| 2026-04-30 18:58 | 35.96012 | -115.30906 | 13121 ft | 166 kts | 43° |
| 2026-04-30 18:58 | 35.96824 | -115.29894 | 13117 ft | 166 kts | 43° |
| 2026-04-30 18:59 | 35.98442 | -115.27875 | 13105 ft | 166 kts | 43° |
| 2026-04-30 19:00 | 36.00882 | -115.24829 | 13088 ft | 166 kts | 43° |
| 2026-04-30 19:00 | 36.01692 | -115.23818 | 13086 ft | 166 kts | 43° |
| 2026-04-30 19:00 | 36.03311 | -115.21794 | 13090 ft | 165 kts | 43° |
| 2026-04-30 19:01 | 36.04935 | -115.19762 | 13086 ft | 166 kts | 43° |
| 2026-04-30 19:01 | 36.05749 | -115.18745 | 13085 ft | 166 kts | 43° |
| 2026-04-30 19:02 | 36.07382 | -115.16700 | 13080 ft | 166 kts | 43° |
| 2026-04-30 19:02 | 36.09012 | -115.14651 | 13080 ft | 166 kts | 43° |
| 2026-04-30 19:03 | 36.10634 | -115.12600 | 13082 ft | 166 kts | 43° |
| 2026-04-30 19:03 | 36.12260 | -115.10545 | 13082 ft | 166 kts | 43° |
| 2026-04-30 19:04 | 36.13881 | -115.08494 | 13076 ft | 167 kts | 43° |
| 2026-04-30 19:04 | 36.15518 | -115.06423 | 13072 ft | 167 kts | 43° |
| 2026-04-30 19:05 | 36.17147 | -115.04359 | 13047 ft | 168 kts | 43° |
| 2026-04-30 19:05 | 36.18825 | -115.02232 | 12992 ft | 169 kts | 43° |
| 2026-04-30 19:06 | 36.20513 | -115.00091 | 12988 ft | 168 kts | 43° |
| 2026-04-30 19:06 | 36.21348 | -114.99032 | 12990 ft | 167 kts | 43° |
| 2026-04-30 19:06 | 36.23012 | -114.96919 | 12996 ft | 167 kts | 43° |
| 2026-04-30 19:07 | 36.24681 | -114.94800 | 12997 ft | 167 kts | 42° |
| 2026-04-30 19:07 | 36.25503 | -114.93755 | 12997 ft | 167 kts | 43° |
| 2026-04-30 19:08 | 36.27137 | -114.91678 | 13003 ft | 166 kts | 42° |
| 2026-04-30 19:08 | 36.28777 | -114.89591 | 13008 ft | 167 kts | 43° |
| 2026-04-30 19:08 | 36.29615 | -114.88525 | 13010 ft | 167 kts | 43° |
| 2026-04-30 19:09 | 36.31286 | -114.86397 | 13013 ft | 166 kts | 42° |
| 2026-04-30 19:09 | 36.32136 | -114.85314 | 13013 ft | 167 kts | 43° |
| 2026-04-30 19:09 | 36.33002 | -114.84210 | 13014 ft | 167 kts | 42° |
| 2026-04-30 19:10 | 36.34732 | -114.82005 | 13013 ft | 166 kts | 43° |
| 2026-04-30 19:10 | 36.36473 | -114.79782 | 13013 ft | 167 kts | 42° |
| 2026-04-30 19:11 | 36.37352 | -114.78661 | 13013 ft | 166 kts | 42° |
| 2026-04-30 19:11 | 36.39091 | -114.76440 | 13009 ft | 166 kts | 42° |
| 2026-04-30 19:11 | 36.39957 | -114.75332 | 13006 ft | 166 kts | 43° |
| 2026-04-30 19:12 | 36.40836 | -114.74209 | 13005 ft | 166 kts | 43° |
| 2026-04-30 19:12 | 36.41698 | -114.73106 | 13005 ft | 166 kts | 43° |
| 2026-04-30 19:12 | 36.42535 | -114.72035 | 13003 ft | 166 kts | 42° |
| 2026-04-30 19:13 | 36.44221 | -114.69877 | 13005 ft | 166 kts | 42° |
| 2026-04-30 19:13 | 36.45919 | -114.67702 | 13006 ft | 166 kts | 42° |
| 2026-04-30 19:13 | 36.46767 | -114.66616 | 13005 ft | 166 kts | 42° |
| 2026-04-30 19:14 | 36.47624 | -114.65517 | 13000 ft | 166 kts | 42° |
| 2026-04-30 19:14 | 36.48482 | -114.64417 | 13001 ft | 166 kts | 42° |
| 2026-04-30 19:14 | 36.49352 | -114.63301 | 12997 ft | 166 kts | 42° |
| 2026-04-30 19:14 | 36.50177 | -114.62242 | 12994 ft | 166 kts | 42° |
| 2026-04-30 19:15 | 36.51019 | -114.61162 | 12996 ft | 166 kts | 42° |
| 2026-04-30 19:15 | 36.52744 | -114.58946 | 13002 ft | 166 kts | 42° |
| 2026-04-30 19:15 | 36.53611 | -114.57832 | 13002 ft | 166 kts | 42° |
| 2026-04-30 19:16 | 36.54461 | -114.56739 | 13003 ft | 166 kts | 42° |
| 2026-04-30 19:16 | 36.55308 | -114.55650 | 13003 ft | 166 kts | 42° |
| 2026-04-30 19:16 | 36.57008 | -114.53464 | 13003 ft | 166 kts | 42° |
| 2026-04-30 19:17 | 36.57861 | -114.52365 | 13002 ft | 166 kts | 42° |
| 2026-04-30 19:17 | 36.59574 | -114.50159 | 13004 ft | 166 kts | 42° |
| 2026-04-30 19:17 | 36.60416 | -114.49074 | 13008 ft | 166 kts | 42° |
| 2026-04-30 19:18 | 36.61830 | -114.47252 | 13008 ft | 166 kts | 42° |
| 2026-04-30 19:18 | 36.62964 | -114.45789 | 13009 ft | 166 kts | 42° |
| 2026-04-30 19:18 | 36.63813 | -114.44694 | 13010 ft | 166 kts | 42° |
| 2026-04-30 19:19 | 36.64674 | -114.43584 | 13008 ft | 166 kts | 42° |
| 2026-04-30 19:19 | 36.65544 | -114.42460 | 13008 ft | 166 kts | 42° |
| 2026-04-30 19:19 | 36.67228 | -114.40285 | 13012 ft | 166 kts | 42° |
| 2026-04-30 19:20 | 36.68079 | -114.39185 | 13010 ft | 166 kts | 42° |
| 2026-04-30 19:20 | 36.68928 | -114.38086 | 13011 ft | 166 kts | 41° |
| 2026-04-30 19:20 | 36.70620 | -114.35898 | 13009 ft | 166 kts | 42° |
| 2026-04-30 19:21 | 36.71449 | -114.34825 | 13006 ft | 166 kts | 42° |
| 2026-04-30 19:21 | 36.73157 | -114.32615 | 13006 ft | 166 kts | 43° |
| 2026-04-30 19:22 | 36.74866 | -114.30399 | 12997 ft | 166 kts | 42° |
| 2026-04-30 19:22 | 36.77498 | -114.27301 | 13002 ft | 163 kts | 30° |
| 2026-04-30 19:23 | 36.80574 | -114.24901 | 13004 ft | 163 kts | 29° |
| 2026-04-30 19:24 | 36.82614 | -114.23320 | 13007 ft | 163 kts | 28° |
| 2026-04-30 19:24 | 36.83644 | -114.22521 | 13010 ft | 163 kts | 29° |
| 2026-04-30 19:24 | 36.85659 | -114.20958 | 13010 ft | 163 kts | 29° |
| 2026-04-30 19:25 | 36.88751 | -114.18556 | 13012 ft | 164 kts | 29° |
| 2026-04-30 19:26 | 36.90827 | -114.16942 | 13017 ft | 163 kts | 29° |
| 2026-04-30 19:26 | 36.92903 | -114.15326 | 13021 ft | 163 kts | 28° |
| 2026-04-30 19:26 | 36.93940 | -114.14519 | 13021 ft | 163 kts | 28° |
| 2026-04-30 19:27 | 36.95997 | -114.12917 | 13018 ft | 164 kts | 28° |
| 2026-04-30 19:27 | 36.98049 | -114.11317 | 13024 ft | 163 kts | 28° |
| 2026-04-30 19:28 | 36.99083 | -114.10511 | 13023 ft | 163 kts | 28° |
| 2026-04-30 19:28 | 37.01132 | -114.08912 | 13022 ft | 164 kts | 28° |
| 2026-04-30 19:29 | 37.03167 | -114.07323 | 13036 ft | 163 kts | 28° |
| 2026-04-30 19:29 | 37.04174 | -114.06537 | 13045 ft | 162 kts | 28° |
| 2026-04-30 19:30 | 37.07271 | -114.04116 | 13046 ft | 163 kts | 29° |
| 2026-04-30 19:30 | 37.09337 | -114.02501 | 13052 ft | 163 kts | 29° |
| 2026-04-30 19:31 | 37.11349 | -114.00926 | 13058 ft | 163 kts | 29° |
| 2026-04-30 19:31 | 37.12330 | -114.00158 | 13060 ft | 163 kts | 29° |
| 2026-04-30 19:31 | 37.14340 | -113.98583 | 13073 ft | 163 kts | 29° |
| 2026-04-30 19:32 | 37.15374 | -113.97772 | 13076 ft | 164 kts | 29° |
| 2026-04-30 19:32 | 37.16391 | -113.96975 | 13074 ft | 164 kts | 29° |
| 2026-04-30 19:32 | 37.17393 | -113.96189 | 13070 ft | 164 kts | 29° |
| 2026-04-30 19:32 | 37.18381 | -113.95413 | 13083 ft | 164 kts | 29° |
| 2026-04-30 19:33 | 37.19405 | -113.94610 | 13081 ft | 164 kts | 29° |
| 2026-04-30 19:33 | 37.20439 | -113.93798 | 13087 ft | 164 kts | 29° |
| 2026-04-30 19:33 | 37.21485 | -113.92977 | 13090 ft | 164 kts | 29° |
| 2026-04-30 19:33 | 37.22521 | -113.92163 | 13097 ft | 164 kts | 29° |
| 2026-04-30 19:34 | 37.23563 | -113.91344 | 13106 ft | 163 kts | 29° |
| 2026-04-30 19:34 | 37.24600 | -113.90528 | 13107 ft | 164 kts | 29° |
| 2026-04-30 19:34 | 37.26658 | -113.88910 | 13123 ft | 163 kts | 29° |
| 2026-04-30 19:35 | 37.27699 | -113.88091 | 13136 ft | 162 kts | 30° |
| 2026-04-30 19:35 | 37.28720 | -113.87287 | 13136 ft | 163 kts | 29° |
| 2026-04-30 19:35 | 37.29761 | -113.86467 | 13132 ft | 163 kts | 30° |
| 2026-04-30 19:35 | 37.30794 | -113.85654 | 13136 ft | 163 kts | 29° |
| 2026-04-30 19:36 | 37.31788 | -113.84871 | 13135 ft | 164 kts | 30° |
| 2026-04-30 19:36 | 37.32794 | -113.84078 | 13132 ft | 164 kts | 30° |
| 2026-04-30 19:36 | 37.34895 | -113.82421 | 13129 ft | 164 kts | 30° |
| 2026-04-30 19:37 | 37.35936 | -113.81600 | 13131 ft | 164 kts | 30° |
| 2026-04-30 19:37 | 37.36994 | -113.80764 | 13133 ft | 164 kts | 30° |
| 2026-04-30 19:37 | 37.38045 | -113.79935 | 13129 ft | 164 kts | 30° |
| 2026-04-30 19:37 | 37.39081 | -113.79117 | 13131 ft | 164 kts | 30° |
| 2026-04-30 19:38 | 37.40116 | -113.78299 | 13137 ft | 164 kts | 30° |
| 2026-04-30 19:38 | 37.41162 | -113.77472 | 13142 ft | 164 kts | 30° |
| 2026-04-30 19:38 | 37.42209 | -113.76645 | 13144 ft | 163 kts | 30° |
| 2026-04-30 19:38 | 37.43242 | -113.75827 | 13146 ft | 164 kts | 30° |
| 2026-04-30 19:39 | 37.44281 | -113.75006 | 13144 ft | 164 kts | 30° |
| 2026-04-30 19:39 | 37.45315 | -113.74188 | 13146 ft | 164 kts | 30° |
| 2026-04-30 19:39 | 37.46342 | -113.73375 | 13146 ft | 163 kts | 30° |
| 2026-04-30 19:39 | 37.47364 | -113.72565 | 13146 ft | 164 kts | 30° |
| 2026-04-30 19:40 | 37.48386 | -113.71756 | 13146 ft | 164 kts | 30° |
| 2026-04-30 19:40 | 37.49412 | -113.70943 | 13146 ft | 164 kts | 30° |
| 2026-04-30 19:40 | 37.50434 | -113.70133 | 13144 ft | 164 kts | 30° |
| 2026-04-30 19:40 | 37.51445 | -113.69331 | 13147 ft | 163 kts | 30° |
| 2026-04-30 19:41 | 37.52466 | -113.68521 | 13152 ft | 163 kts | 30° |
| 2026-04-30 19:41 | 37.53479 | -113.67717 | 13151 ft | 163 kts | 30° |
| 2026-04-30 19:41 | 37.54481 | -113.66922 | 13152 ft | 163 kts | 30° |
| 2026-04-30 19:41 | 37.55488 | -113.66123 | 13149 ft | 163 kts | 30° |
| 2026-04-30 19:42 | 37.56510 | -113.65310 | 13148 ft | 163 kts | 30° |
| 2026-04-30 19:42 | 37.57515 | -113.64512 | 13153 ft | 163 kts | 30° |
| 2026-04-30 19:42 | 37.58527 | -113.63708 | 13154 ft | 163 kts | 30° |
| 2026-04-30 19:42 | 37.59540 | -113.62903 | 13154 ft | 162 kts | 30° |
| 2026-04-30 19:43 | 37.60551 | -113.62098 | 13152 ft | 162 kts | 30° |
| 2026-04-30 19:43 | 37.61569 | -113.61288 | 13152 ft | 162 kts | 30° |
| 2026-04-30 19:43 | 37.62583 | -113.60482 | 13156 ft | 162 kts | 30° |
| 2026-04-30 19:44 | 37.64612 | -113.58866 | 13155 ft | 162 kts | 30° |
| 2026-04-30 19:44 | 37.65632 | -113.58054 | 13154 ft | 163 kts | 30° |
| 2026-04-30 19:44 | 37.66655 | -113.57238 | 13157 ft | 162 kts | 30° |
| 2026-04-30 19:44 | 37.67663 | -113.56435 | 13164 ft | 162 kts | 30° |
| 2026-04-30 19:45 | 37.68670 | -113.55631 | 13173 ft | 161 kts | 30° |
| 2026-04-30 19:45 | 37.69678 | -113.54828 | 13178 ft | 161 kts | 30° |
| 2026-04-30 19:45 | 37.70698 | -113.54013 | 13178 ft | 162 kts | 30° |
| 2026-04-30 19:45 | 37.71706 | -113.53209 | 13176 ft | 162 kts | 31° |
| 2026-04-30 19:46 | 37.72722 | -113.52398 | 13175 ft | 162 kts | 31° |
| 2026-04-30 19:46 | 37.73739 | -113.51586 | 13179 ft | 162 kts | 31° |
| 2026-04-30 19:46 | 37.74726 | -113.50797 | 13182 ft | 162 kts | 31° |
| 2026-04-30 19:46 | 37.75714 | -113.50008 | 13184 ft | 162 kts | 31° |
| 2026-04-30 19:47 | 37.76728 | -113.49197 | 13187 ft | 162 kts | 31° |
| 2026-04-30 19:47 | 37.77422 | -113.48641 | 13188 ft | 162 kts | 31° |
| 2026-04-30 19:47 | 37.78803 | -113.47537 | 13186 ft | 162 kts | 31° |
| 2026-04-30 19:47 | 37.79835 | -113.46711 | 13185 ft | 163 kts | 31° |
| 2026-04-30 19:48 | 37.80861 | -113.45889 | 13189 ft | 162 kts | 31° |
| 2026-04-30 19:48 | 37.81894 | -113.45062 | 13190 ft | 162 kts | 31° |
| 2026-04-30 19:48 | 37.82922 | -113.44239 | 13187 ft | 162 kts | 31° |
| 2026-04-30 19:48 | 37.83942 | -113.43421 | 13187 ft | 162 kts | 31° |
| 2026-04-30 19:49 | 37.84967 | -113.42599 | 13194 ft | 162 kts | 31° |
| 2026-04-30 19:49 | 37.86998 | -113.40970 | 13183 ft | 163 kts | 31° |
| 2026-04-30 19:49 | 37.87999 | -113.40167 | 13178 ft | 163 kts | 31° |
| 2026-04-30 19:50 | 37.88998 | -113.39365 | 13175 ft | 163 kts | 31° |
| 2026-04-30 19:50 | 37.90004 | -113.38558 | 13177 ft | 162 kts | 31° |
| 2026-04-30 19:50 | 37.90992 | -113.37764 | 13185 ft | 162 kts | 31° |
| 2026-04-30 19:50 | 37.91999 | -113.36955 | 13184 ft | 162 kts | 31° |
| 2026-04-30 19:51 | 37.93021 | -113.36133 | 13182 ft | 162 kts | 31° |
| 2026-04-30 19:51 | 37.94032 | -113.35320 | 13184 ft | 162 kts | 31° |
| 2026-04-30 19:51 | 37.95027 | -113.34521 | 13182 ft | 162 kts | 31° |
| 2026-04-30 19:51 | 37.95999 | -113.33738 | 13181 ft | 162 kts | 31° |
| 2026-04-30 19:52 | 37.96991 | -113.32940 | 13183 ft | 162 kts | 31° |
| 2026-04-30 19:52 | 37.97949 | -113.32168 | 13185 ft | 162 kts | 31° |
| 2026-04-30 19:52 | 37.98926 | -113.31382 | 13189 ft | 162 kts | 31° |
| 2026-04-30 19:52 | 37.99925 | -113.30577 | 13195 ft | 162 kts | 32° |
| 2026-04-30 19:53 | 38.00928 | -113.29769 | 13194 ft | 162 kts | 32° |
| 2026-04-30 19:53 | 38.01927 | -113.28963 | 13193 ft | 162 kts | 31° |
| 2026-04-30 19:53 | 38.02935 | -113.28151 | 13192 ft | 162 kts | 31° |
| 2026-04-30 19:53 | 38.03925 | -113.27353 | 13189 ft | 163 kts | 31° |
| 2026-04-30 19:54 | 38.04919 | -113.26550 | 13190 ft | 162 kts | 31° |
| 2026-04-30 19:54 | 38.05934 | -113.25731 | 13189 ft | 163 kts | 31° |
| 2026-04-30 19:54 | 38.06936 | -113.24922 | 13188 ft | 163 kts | 32° |
| 2026-04-30 19:54 | 38.07924 | -113.24124 | 13194 ft | 162 kts | 31° |
| 2026-04-30 19:55 | 38.08902 | -113.23334 | 13193 ft | 163 kts | 31° |
| 2026-04-30 19:55 | 38.09873 | -113.22548 | 13193 ft | 163 kts | 31° |
| 2026-04-30 19:55 | 38.10876 | -113.21738 | 13196 ft | 163 kts | 31° |
| 2026-04-30 19:55 | 38.11867 | -113.20937 | 13192 ft | 164 kts | 31° |
| 2026-04-30 19:56 | 38.12852 | -113.20140 | 13190 ft | 163 kts | 31° |
| 2026-04-30 19:56 | 38.13835 | -113.19344 | 13188 ft | 163 kts | 31° |
| 2026-04-30 19:56 | 38.14838 | -113.18531 | 13192 ft | 163 kts | 31° |
| 2026-04-30 19:56 | 38.15850 | -113.17712 | 13193 ft | 163 kts | 31° |
| 2026-04-30 19:57 | 38.16848 | -113.16904 | 13189 ft | 164 kts | 31° |
| 2026-04-30 19:57 | 38.17857 | -113.16086 | 13189 ft | 164 kts | 31° |
| 2026-04-30 19:57 | 38.18848 | -113.15283 | 13189 ft | 163 kts | 31° |
| 2026-04-30 19:57 | 38.19835 | -113.14483 | 13189 ft | 163 kts | 31° |
| 2026-04-30 19:58 | 38.20818 | -113.13685 | 13188 ft | 163 kts | 31° |
| 2026-04-30 19:58 | 38.21785 | -113.12900 | 13188 ft | 163 kts | 31° |
| 2026-04-30 19:58 | 38.22787 | -113.12087 | 13186 ft | 163 kts | 31° |
| 2026-04-30 19:58 | 38.23767 | -113.11292 | 13182 ft | 163 kts | 31° |
| 2026-04-30 19:59 | 38.24734 | -113.10506 | 13182 ft | 163 kts | 31° |
| 2026-04-30 19:59 | 38.25700 | -113.09721 | 13183 ft | 163 kts | 31° |
| 2026-04-30 19:59 | 38.27638 | -113.08146 | 13187 ft | 163 kts | 31° |
| 2026-04-30 20:00 | 38.28603 | -113.07362 | 13180 ft | 163 kts | 31° |
| 2026-04-30 20:00 | 38.29568 | -113.06576 | 13178 ft | 163 kts | 31° |
| 2026-04-30 20:00 | 38.30538 | -113.05787 | 13179 ft | 163 kts | 31° |
| 2026-04-30 20:00 | 38.31507 | -113.04998 | 13178 ft | 163 kts | 31° |
| 2026-04-30 20:01 | 38.33447 | -113.03417 | 13168 ft | 163 kts | 31° |
| 2026-04-30 20:01 | 38.34417 | -113.02628 | 13167 ft | 163 kts | 31° |
| 2026-04-30 20:01 | 38.35392 | -113.01834 | 13166 ft | 163 kts | 31° |
| 2026-04-30 20:02 | 38.37469 | -113.00561 | 13168 ft | 162 kts | 22° |
| 2026-04-30 20:02 | 38.38520 | -112.99994 | 13164 ft | 162 kts | 21° |
| 2026-04-30 20:03 | 38.40679 | -112.98842 | 13166 ft | 162 kts | 21° |
| 2026-04-30 20:03 | 38.41766 | -112.98263 | 13160 ft | 162 kts | 22° |
| 2026-04-30 20:03 | 38.42868 | -112.97676 | 13168 ft | 162 kts | 21° |
| 2026-04-30 20:03 | 38.43954 | -112.97098 | 13166 ft | 162 kts | 22° |
| 2026-04-30 20:04 | 38.45049 | -112.96515 | 13168 ft | 162 kts | 21° |
| 2026-04-30 20:04 | 38.46131 | -112.95938 | 13167 ft | 162 kts | 21° |
| 2026-04-30 20:04 | 38.47180 | -112.95379 | 13168 ft | 162 kts | 21° |
| 2026-04-30 20:05 | 38.49350 | -112.94224 | 13029 ft | 168 kts | 21° |
| 2026-04-30 20:05 | 38.50421 | -112.93650 | 13028 ft | 166 kts | 21° |
| 2026-04-30 20:05 | 38.52563 | -112.92506 | 13026 ft | 164 kts | 21° |
| 2026-04-30 20:06 | 38.53631 | -112.91934 | 13030 ft | 163 kts | 21° |
| 2026-04-30 20:06 | 38.54686 | -112.91352 | 13032 ft | 163 kts | 22° |
| 2026-04-30 20:06 | 38.55736 | -112.90772 | 13030 ft | 163 kts | 22° |
| 2026-04-30 20:06 | 38.56790 | -112.90190 | 13030 ft | 163 kts | 22° |
| 2026-04-30 20:07 | 38.57857 | -112.89601 | 13023 ft | 163 kts | 22° |
| 2026-04-30 20:07 | 38.58931 | -112.89011 | 13029 ft | 162 kts | 22° |
| 2026-04-30 20:07 | 38.61052 | -112.87843 | 13029 ft | 162 kts | 21° |
| 2026-04-30 20:08 | 38.62110 | -112.87261 | 13029 ft | 162 kts | 21° |
| 2026-04-30 20:08 | 38.63179 | -112.86674 | 13030 ft | 162 kts | 21° |
| 2026-04-30 20:08 | 38.64241 | -112.86090 | 13027 ft | 162 kts | 21° |
| 2026-04-30 20:08 | 38.65298 | -112.85508 | 13026 ft | 162 kts | 21° |
| 2026-04-30 20:09 | 38.66359 | -112.84926 | 13027 ft | 161 kts | 21° |
| 2026-04-30 20:09 | 38.67420 | -112.84341 | 13029 ft | 162 kts | 21° |
| 2026-04-30 20:09 | 38.69551 | -112.83169 | 13027 ft | 162 kts | 21° |
| 2026-04-30 20:10 | 38.71701 | -112.81984 | 13028 ft | 162 kts | 21° |
| 2026-04-30 20:10 | 38.72752 | -112.81405 | 13032 ft | 162 kts | 21° |
| 2026-04-30 20:10 | 38.73797 | -112.80829 | 13035 ft | 162 kts | 21° |
| 2026-04-30 20:11 | 38.75897 | -112.79672 | 13030 ft | 162 kts | 21° |
| 2026-04-30 20:11 | 38.76977 | -112.79076 | 13029 ft | 162 kts | 21° |
| 2026-04-30 20:11 | 38.78054 | -112.78482 | 13029 ft | 162 kts | 21° |
| 2026-04-30 20:12 | 38.80206 | -112.77293 | 13028 ft | 162 kts | 21° |
| 2026-04-30 20:12 | 38.81255 | -112.76713 | 13028 ft | 162 kts | 21° |
| 2026-04-30 20:12 | 38.82305 | -112.76134 | 13026 ft | 162 kts | 21° |
| 2026-04-30 20:13 | 38.83380 | -112.75539 | 13027 ft | 162 kts | 21° |
| 2026-04-30 20:13 | 38.84421 | -112.74963 | 13026 ft | 162 kts | 21° |
| 2026-04-30 20:13 | 38.85472 | -112.74382 | 13028 ft | 162 kts | 21° |
| 2026-04-30 20:13 | 38.86515 | -112.73806 | 13026 ft | 162 kts | 21° |
| 2026-04-30 20:14 | 38.87575 | -112.73219 | 13027 ft | 162 kts | 21° |
| 2026-04-30 20:14 | 38.88616 | -112.72642 | 13025 ft | 162 kts | 21° |
| 2026-04-30 20:14 | 38.89667 | -112.72060 | 13024 ft | 162 kts | 21° |
| 2026-04-30 20:14 | 38.90734 | -112.71469 | 13025 ft | 162 kts | 21° |
| 2026-04-30 20:15 | 38.91799 | -112.70879 | 13024 ft | 162 kts | 21° |
| 2026-04-30 20:15 | 38.92872 | -112.70284 | 13026 ft | 162 kts | 20° |
| 2026-04-30 20:15 | 38.93925 | -112.69700 | 13027 ft | 162 kts | 21° |
| 2026-04-30 20:15 | 38.94989 | -112.69110 | 13022 ft | 162 kts | 21° |
| 2026-04-30 20:16 | 38.96047 | -112.68523 | 13029 ft | 162 kts | 21° |
| 2026-04-30 20:16 | 38.97103 | -112.67936 | 13029 ft | 162 kts | 20° |
| 2026-04-30 20:16 | 38.98171 | -112.67344 | 13025 ft | 162 kts | 20° |
| 2026-04-30 20:16 | 38.99239 | -112.66750 | 13024 ft | 162 kts | 21° |
| 2026-04-30 20:17 | 39.00307 | -112.66156 | 13024 ft | 162 kts | 21° |
| 2026-04-30 20:17 | 39.01362 | -112.65570 | 13025 ft | 163 kts | 21° |
| 2026-04-30 20:17 | 39.02429 | -112.64977 | 13023 ft | 163 kts | 20° |
| 2026-04-30 20:17 | 39.03483 | -112.64391 | 13020 ft | 162 kts | 20° |
| 2026-04-30 20:18 | 39.04539 | -112.63803 | 13026 ft | 162 kts | 20° |
| 2026-04-30 20:18 | 39.05594 | -112.63216 | 13025 ft | 162 kts | 20° |
| 2026-04-30 20:18 | 39.06655 | -112.62625 | 13027 ft | 162 kts | 20° |
| 2026-04-30 20:18 | 39.07719 | -112.62032 | 13026 ft | 162 kts | 20° |
| 2026-04-30 20:19 | 39.08776 | -112.61443 | 13024 ft | 162 kts | 20° |
| 2026-04-30 20:19 | 39.09824 | -112.60859 | 13025 ft | 162 kts | 20° |
| 2026-04-30 20:19 | 39.10871 | -112.60276 | 13032 ft | 162 kts | 21° |
| 2026-04-30 20:19 | 39.11930 | -112.59685 | 13033 ft | 163 kts | 20° |
| 2026-04-30 20:20 | 39.13004 | -112.59086 | 13033 ft | 163 kts | 20° |
| 2026-04-30 20:20 | 39.14072 | -112.58491 | 13032 ft | 164 kts | 20° |
| 2026-04-30 20:20 | 39.15150 | -112.57888 | 13034 ft | 164 kts | 20° |
| 2026-04-30 20:20 | 39.16215 | -112.57294 | 13034 ft | 164 kts | 20° |
| 2026-04-30 20:21 | 39.17260 | -112.56710 | 13034 ft | 164 kts | 20° |
| 2026-04-30 20:21 | 39.18322 | -112.56116 | 13032 ft | 164 kts | 21° |
| 2026-04-30 20:21 | 39.19377 | -112.55527 | 13033 ft | 164 kts | 20° |
| 2026-04-30 20:21 | 39.20431 | -112.54937 | 13034 ft | 164 kts | 20° |
| 2026-04-30 20:22 | 39.21500 | -112.54339 | 13030 ft | 164 kts | 20° |
| 2026-04-30 20:22 | 39.22571 | -112.53739 | 13030 ft | 163 kts | 20° |
| 2026-04-30 20:22 | 39.23640 | -112.53141 | 13031 ft | 164 kts | 20° |
| 2026-04-30 20:22 | 39.24704 | -112.52545 | 13034 ft | 164 kts | 20° |
| 2026-04-30 20:23 | 39.25772 | -112.51948 | 13031 ft | 164 kts | 20° |
| 2026-04-30 20:23 | 39.26836 | -112.51352 | 13030 ft | 164 kts | 20° |
| 2026-04-30 20:23 | 39.27912 | -112.50748 | 13031 ft | 164 kts | 20° |
| 2026-04-30 20:23 | 39.28976 | -112.50152 | 13027 ft | 164 kts | 20° |
| 2026-04-30 20:24 | 39.30067 | -112.49540 | 13025 ft | 164 kts | 20° |
| 2026-04-30 20:24 | 39.31125 | -112.48946 | 13020 ft | 164 kts | 20° |
| 2026-04-30 20:24 | 39.32184 | -112.48352 | 13019 ft | 164 kts | 20° |
| 2026-04-30 20:24 | 39.33235 | -112.47762 | 13017 ft | 164 kts | 20° |
| 2026-04-30 20:25 | 39.35346 | -112.46576 | 13020 ft | 164 kts | 20° |
| 2026-04-30 20:25 | 39.36415 | -112.45976 | 13019 ft | 164 kts | 20° |
| 2026-04-30 20:26 | 39.38523 | -112.44790 | 13022 ft | 164 kts | 20° |
| 2026-04-30 20:26 | 39.40629 | -112.43606 | 13024 ft | 164 kts | 20° |
| 2026-04-30 20:26 | 39.41678 | -112.43015 | 13025 ft | 164 kts | 20° |
| 2026-04-30 20:27 | 39.43795 | -112.41823 | 13022 ft | 164 kts | 20° |
| 2026-04-30 20:27 | 39.45943 | -112.40613 | 13024 ft | 164 kts | 20° |
| 2026-04-30 20:28 | 39.48081 | -112.39406 | 13026 ft | 164 kts | 20° |
| 2026-04-30 20:28 | 39.50212 | -112.38204 | 13031 ft | 164 kts | 20° |
| 2026-04-30 20:29 | 39.52353 | -112.36995 | 13035 ft | 164 kts | 20° |
| 2026-04-30 20:30 | 39.55519 | -112.35206 | 13038 ft | 164 kts | 20° |
| 2026-04-30 20:30 | 39.58685 | -112.33415 | 13033 ft | 164 kts | 21° |
| 2026-04-30 20:31 | 39.61859 | -112.31617 | 13034 ft | 164 kts | 21° |
| 2026-04-30 20:32 | 39.65022 | -112.29824 | 13032 ft | 164 kts | 21° |
| 2026-04-30 20:32 | 39.67145 | -112.28620 | 13031 ft | 165 kts | 21° |
| 2026-04-30 20:33 | 39.68208 | -112.28016 | 13031 ft | 165 kts | 21° |
| 2026-04-30 20:33 | 39.70336 | -112.26808 | 13030 ft | 165 kts | 21° |
| 2026-04-30 20:33 | 39.71411 | -112.26197 | 13026 ft | 165 kts | 21° |
| 2026-04-30 20:34 | 39.73545 | -112.24984 | 13024 ft | 165 kts | 21° |
| 2026-04-30 20:34 | 39.75681 | -112.23768 | 13023 ft | 165 kts | 21° |
| 2026-04-30 20:35 | 39.76736 | -112.23168 | 13022 ft | 165 kts | 21° |
| 2026-04-30 20:35 | 39.77790 | -112.22568 | 13024 ft | 165 kts | 21° |
| 2026-04-30 20:35 | 39.79899 | -112.21367 | 13013 ft | 165 kts | 21° |
| 2026-04-30 20:36 | 39.80952 | -112.20766 | 13012 ft | 165 kts | 21° |
| 2026-04-30 20:36 | 39.82011 | -112.20163 | 13012 ft | 164 kts | 21° |
| 2026-04-30 20:36 | 39.84107 | -112.18967 | 13012 ft | 164 kts | 21° |
| 2026-04-30 20:37 | 39.85159 | -112.18366 | 13017 ft | 164 kts | 21° |
| 2026-04-30 20:37 | 39.86211 | -112.17766 | 13015 ft | 164 kts | 21° |
| 2026-04-30 20:37 | 39.87270 | -112.17161 | 13014 ft | 165 kts | 21° |
| 2026-04-30 20:37 | 39.88333 | -112.16554 | 13013 ft | 165 kts | 21° |
| 2026-04-30 20:38 | 39.89408 | -112.15941 | 13012 ft | 164 kts | 21° |
| 2026-04-30 20:38 | 39.90464 | -112.15336 | 13012 ft | 164 kts | 21° |
| 2026-04-30 20:38 | 39.91521 | -112.14732 | 13014 ft | 164 kts | 21° |
| 2026-04-30 20:39 | 39.93584 | -112.13548 | 13012 ft | 159 kts | 21° |
| 2026-04-30 20:39 | 39.94599 | -112.12968 | 13012 ft | 158 kts | 20° |
| 2026-04-30 20:39 | 39.95608 | -112.12390 | 13014 ft | 157 kts | 21° |
| 2026-04-30 20:40 | 39.97613 | -112.11243 | 13012 ft | 156 kts | 21° |
| 2026-04-30 20:40 | 39.98608 | -112.10674 | 13015 ft | 156 kts | 20° |
| 2026-04-30 20:40 | 39.99600 | -112.10105 | 13015 ft | 156 kts | 21° |
| 2026-04-30 20:41 | 40.01585 | -112.08967 | 13013 ft | 155 kts | 21° |
| 2026-04-30 20:41 | 40.02574 | -112.08400 | 13019 ft | 155 kts | 21° |
| 2026-04-30 20:41 | 40.03572 | -112.07827 | 13019 ft | 155 kts | 21° |
| 2026-04-30 20:41 | 40.04565 | -112.07257 | 13019 ft | 155 kts | 21° |
| 2026-04-30 20:42 | 40.05554 | -112.06689 | 13017 ft | 155 kts | 20° |
| 2026-04-30 20:42 | 40.06546 | -112.06119 | 13021 ft | 155 kts | 21° |
| 2026-04-30 20:42 | 40.08530 | -112.04978 | 13024 ft | 156 kts | 21° |
| 2026-04-30 20:43 | 40.09524 | -112.04407 | 13021 ft | 156 kts | 21° |
| 2026-04-30 20:43 | 40.10525 | -112.03831 | 13023 ft | 156 kts | 21° |
| 2026-04-30 20:43 | 40.11517 | -112.03260 | 13023 ft | 156 kts | 21° |
| 2026-04-30 20:44 | 40.13503 | -112.02116 | 13024 ft | 156 kts | 21° |
| 2026-04-30 20:44 | 40.14496 | -112.01544 | 13021 ft | 156 kts | 21° |
| 2026-04-30 20:44 | 40.16484 | -112.00398 | 13025 ft | 156 kts | 21° |
| 2026-04-30 20:45 | 40.18485 | -111.99244 | 13028 ft | 157 kts | 21° |
| 2026-04-30 20:45 | 40.19483 | -111.98668 | 13027 ft | 157 kts | 21° |
| 2026-04-30 20:45 | 40.20482 | -111.98091 | 13023 ft | 157 kts | 21° |
| 2026-04-30 20:46 | 40.23468 | -111.96366 | 13023 ft | 156 kts | 21° |
| 2026-04-30 20:46 | 40.24468 | -111.95788 | 13031 ft | 156 kts | 21° |
| 2026-04-30 20:47 | 40.26466 | -111.94633 | 13031 ft | 158 kts | 21° |
| 2026-04-30 20:47 | 40.27491 | -111.94123 | 13019 ft | 157 kts | 11° |
| 2026-04-30 20:48 | 40.29645 | -111.93751 | 13030 ft | 155 kts | 4° |
| 2026-04-30 20:48 | 40.30723 | -111.93629 | 13015 ft | 155 kts | 4° |
| 2026-04-30 20:48 | 40.31810 | -111.93502 | 13019 ft | 155 kts | 4° |
| 2026-04-30 20:48 | 40.32883 | -111.93375 | 13027 ft | 155 kts | 4° |
| 2026-04-30 20:49 | 40.33959 | -111.93245 | 13024 ft | 155 kts | 4° |
| 2026-04-30 20:49 | 40.35036 | -111.93114 | 13020 ft | 155 kts | 4° |
| 2026-04-30 20:49 | 40.36122 | -111.92980 | 12958 ft | 159 kts | 4° |
| 2026-04-30 20:50 | 40.38400 | -111.92700 | 12706 ft | 167 kts | 4° |
| 2026-04-30 20:50 | 40.39573 | -111.92554 | 12587 ft | 169 kts | 5° |
| 2026-04-30 20:50 | 40.40747 | -111.92409 | 12471 ft | 169 kts | 5° |
| 2026-04-30 20:50 | 40.41920 | -111.92274 | 12346 ft | 168 kts | 2° |
| 2026-04-30 20:51 | 40.43092 | -111.92329 | 12223 ft | 168 kts | 355° |
| 2026-04-30 20:51 | 40.45429 | -111.92592 | 11948 ft | 168 kts | 356° |
| 2026-04-30 20:51 | 40.46575 | -111.92717 | 11770 ft | 162 kts | 355° |
| 2026-04-30 20:52 | 40.47695 | -111.92848 | 11591 ft | 158 kts | 355° |
| 2026-04-30 20:52 | 40.48779 | -111.92985 | 11415 ft | 156 kts | 355° |
| 2026-04-30 20:52 | 40.50919 | -111.93243 | 11068 ft | 156 kts | 356° |
| 2026-04-30 20:53 | 40.52022 | -111.93375 | 10895 ft | 161 kts | 356° |
| 2026-04-30 20:53 | 40.53151 | -111.93505 | 10723 ft | 164 kts | 356° |
| 2026-04-30 20:53 | 40.54298 | -111.93635 | 10548 ft | 164 kts | 356° |
| 2026-04-30 20:54 | 40.56613 | -111.93899 | 10022 ft | 169 kts | 356° |
| 2026-04-30 20:54 | 40.57783 | -111.94036 | 9750 ft | 165 kts | 357° |
| 2026-04-30 20:54 | 40.58879 | -111.94158 | 9408 ft | 154 kts | 357° |
| 2026-04-30 20:55 | 40.60969 | -111.94399 | 8534 ft | 152 kts | 357° |
| 2026-04-30 20:55 | 40.62029 | -111.94520 | 8042 ft | 155 kts | 356° |
| 2026-04-30 20:55 | 40.63106 | -111.94642 | 7546 ft | 155 kts | 356° |
| 2026-04-30 20:56 | 40.65239 | -111.94912 | 6673 ft | 148 kts | 351° |
| 2026-04-30 20:56 | 40.66222 | -111.95021 | 6458 ft | 139 kts | 355° |
| 2026-04-30 20:56 | 40.68159 | -111.95231 | 6067 ft | 141 kts | 354° |
| 2026-04-30 20:57 | 40.69135 | -111.95343 | 5874 ft | 141 kts | 354° |
| 2026-04-30 20:57 | 40.70123 | -111.95454 | 5680 ft | 141 kts | 353° |
| 2026-04-30 20:57 | 40.71093 | -111.95568 | 5489 ft | 138 kts | 353° |
| 2026-04-30 20:58 | 40.72975 | -111.95786 | 5164 ft | 129 kts | 353° |
| 2026-04-30 20:58 | 40.73845 | -111.95884 | 4971 ft | 125 kts | 352° |
| 2026-04-30 20:58 | 40.74696 | -111.95988 | 4796 ft | 121 kts | 351° |
| 2026-04-30 20:58 | 40.75516 | -111.96105 | 4673 ft | 112 kts | 352° |
| 2026-04-30 20:59 | 40.77005 | -111.96205 | 4358 ft | 102 kts | 357° |
| 2026-04-30 20:59 | 40.77668 | -111.96206 | 4266 ft | 87 kts | 357° |
| 2026-04-30 21:00 | 40.78653 | -111.96217 | 4246 ft | 52 kts | 2° |
| 2026-04-30 21:00 | 40.79196 | -111.96256 | 4246 ft | 29 kts | 336° |
| 2026-04-30 21:01 | 40.79496 | -111.96465 | 4245 ft | 21 kts | 348° |
| 2026-04-30 21:01 | 40.79610 | -111.96563 | 4245 ft | 19 kts | 330° |
| 2026-04-30 21:01 | 40.79792 | -111.96775 | 4245 ft | 18 kts | 269° |
| 2026-04-30 21:02 | 40.79767 | -111.96929 | 4246 ft | 16 kts | 258° |
| 2026-04-30 21:02 | 40.79749 | -111.97076 | 4246 ft | 16 kts | 263° |
| 2026-04-30 21:02 | 40.79725 | -111.97224 | 4245 ft | 17 kts | 263° |
| 2026-04-30 21:02 | 40.79712 | -111.97381 | 4245 ft | 18 kts | 261° |
| 2026-04-30 21:03 | 40.79699 | -111.97546 | 4244 ft | 18 kts | 265° |
| 2026-04-30 21:03 | 40.79692 | -111.97708 | 4243 ft | 18 kts | 270° |
| 2026-04-30 21:03 | 40.79767 | -111.97804 | 4243 ft | 17 kts | 351° |
| 2026-04-30 21:03 | 40.79885 | -111.97829 | 4244 ft | 17 kts | 348° |
| 2026-04-30 21:04 | 40.79979 | -111.97810 | 4246 ft | 14 kts | 338° |
| 2026-04-30 21:04 | 40.80049 | -111.97908 | 4246 ft | 16 kts | 290° |
| 2026-04-30 21:04 | 40.80192 | -111.98086 | 4246 ft | 14 kts | 316° |
| 2026-04-30 21:05 | 40.80277 | -111.98113 | 4246 ft | 2 kts | 353° |